sensor_id;sensor_type;location;lat;lon;timestamp;P1;durP1;ratioP1;P2;durP2;ratioP2
12760;SDS011;6444;49.742;6.114;2023-07-30T00:02:14;7.40;;;5.72;;
12760;SDS011;6444;49.742;6.114;2023-07-30T00:04:40;7.90;;;5.05;;
12760;SDS011;6444;49.742;6.114;2023-07-30T00:07:07;5.28;;;4.78;;
12760;SDS011;6444;49.742;6.114;2023-07-30T00:09:34;9.68;;;4.45;;
12760;SDS011;6444;49.742;6.114;2023-07-30T00:12:01;6.85;;;5.00;;
12760;SDS011;6444;49.742;6.114;2023-07-30T00:14:28;8.30;;;5.05;;
12760;SDS011;6444;49.742;6.114;2023-07-30T00:16:54;6.50;;;5.12;;
12760;SDS011;6444;49.742;6.114;2023-07-30T00:19:21;10.35;;;5.35;;
12760;SDS011;6444;49.742;6.114;2023-07-30T00:21:48;6.87;;;5.22;;
12760;SDS011;6444;49.742;6.114;2023-07-30T00:24:15;6.37;;;4.72;;
12760;SDS011;6444;49.742;6.114;2023-07-30T00:26:41;7.18;;;4.70;;
12760;SDS011;6444;49.742;6.114;2023-07-30T00:29:08;6.47;;;4.70;;
12760;SDS011;6444;49.742;6.114;2023-07-30T00:31:35;6.53;;;4.40;;
12760;SDS011;6444;49.742;6.114;2023-07-30T00:34:05;6.95;;;4.70;;
12760;SDS011;6444;49.742;6.114;2023-07-30T00:36:32;8.02;;;6.18;;
12760;SDS011;6444;49.742;6.114;2023-07-30T00:38:58;7.73;;;6.47;;
12760;SDS011;6444;49.742;6.114;2023-07-30T00:41:25;8.15;;;6.10;;
12760;SDS011;6444;49.742;6.114;2023-07-30T00:43:51;9.05;;;5.78;;
12760;SDS011;6444;49.742;6.114;2023-07-30T00:46:18;6.28;;;5.03;;
12760;SDS011;6444;49.742;6.114;2023-07-30T00:48:45;9.57;;;5.15;;
12760;SDS011;6444;49.742;6.114;2023-07-30T00:51:11;6.82;;;5.03;;
12760;SDS011;6444;49.742;6.114;2023-07-30T00:53:39;7.10;;;4.78;;
12760;SDS011;6444;49.742;6.114;2023-07-30T00:56:05;8.95;;;5.28;;
12760;SDS011;6444;49.742;6.114;2023-07-30T00:58:32;7.53;;;5.60;;
12760;SDS011;6444;49.742;6.114;2023-07-30T01:00:59;8.73;;;5.53;;
12760;SDS011;6444;49.742;6.114;2023-07-30T01:03:25;7.32;;;5.20;;
12760;SDS011;6444;49.742;6.114;2023-07-30T01:05:53;6.07;;;5.25;;
12760;SDS011;6444;49.742;6.114;2023-07-30T01:08:19;7.45;;;5.30;;
12760;SDS011;6444;49.742;6.114;2023-07-30T01:10:46;7.50;;;4.85;;
12760;SDS011;6444;49.742;6.114;2023-07-30T01:13:13;8.45;;;5.47;;
12760;SDS011;6444;49.742;6.114;2023-07-30T01:15:39;7.40;;;5.12;;
12760;SDS011;6444;49.742;6.114;2023-07-30T01:18:07;7.87;;;5.07;;
12760;SDS011;6444;49.742;6.114;2023-07-30T01:20:33;10.38;;;5.12;;
12760;SDS011;6444;49.742;6.114;2023-07-30T01:23:00;9.80;;;5.53;;
12760;SDS011;6444;49.742;6.114;2023-07-30T01:25:30;7.35;;;5.40;;
12760;SDS011;6444;49.742;6.114;2023-07-30T01:27:57;7.95;;;5.10;;
12760;SDS011;6444;49.742;6.114;2023-07-30T01:30:25;10.68;;;7.72;;
12760;SDS011;6444;49.742;6.114;2023-07-30T01:32:52;8.85;;;6.37;;
12760;SDS011;6444;49.742;6.114;2023-07-30T01:35:20;6.93;;;5.57;;
12760;SDS011;6444;49.742;6.114;2023-07-30T01:37:48;9.85;;;7.07;;
12760;SDS011;6444;49.742;6.114;2023-07-30T01:40:14;9.73;;;7.50;;
12760;SDS011;6444;49.742;6.114;2023-07-30T01:42:41;10.80;;;7.40;;
12760;SDS011;6444;49.742;6.114;2023-07-30T01:45:07;7.90;;;6.07;;
12760;SDS011;6444;49.742;6.114;2023-07-30T01:47:34;9.82;;;7.32;;
12760;SDS011;6444;49.742;6.114;2023-07-30T01:50:01;8.45;;;5.95;;
12760;SDS011;6444;49.742;6.114;2023-07-30T01:52:28;11.38;;;7.70;;
12760;SDS011;6444;49.742;6.114;2023-07-30T01:54:55;9.77;;;6.65;;
12760;SDS011;6444;49.742;6.114;2023-07-30T01:57:21;8.75;;;5.95;;
12760;SDS011;6444;49.742;6.114;2023-07-30T01:59:48;9.95;;;5.95;;
12760;SDS011;6444;49.742;6.114;2023-07-30T02:02:15;8.80;;;5.45;;
12760;SDS011;6444;49.742;6.114;2023-07-30T02:04:41;11.68;;;5.50;;
12760;SDS011;6444;49.742;6.114;2023-07-30T02:07:09;9.63;;;5.97;;
12760;SDS011;6444;49.742;6.114;2023-07-30T02:09:35;10.63;;;7.70;;
12760;SDS011;6444;49.742;6.114;2023-07-30T02:12:02;12.95;;;6.65;;
12760;SDS011;6444;49.742;6.114;2023-07-30T02:14:29;12.13;;;5.97;;
12760;SDS011;6444;49.742;6.114;2023-07-30T02:16:55;8.63;;;6.03;;
12760;SDS011;6444;49.742;6.114;2023-07-30T02:19:22;10.07;;;6.40;;
12760;SDS011;6444;49.742;6.114;2023-07-30T02:21:48;13.50;;;6.53;;
12760;SDS011;6444;49.742;6.114;2023-07-30T02:24:15;12.05;;;8.70;;
12760;SDS011;6444;49.742;6.114;2023-07-30T02:26:42;11.82;;;7.12;;
12760;SDS011;6444;49.742;6.114;2023-07-30T02:29:08;10.25;;;6.30;;
12760;SDS011;6444;49.742;6.114;2023-07-30T02:31:35;14.63;;;8.88;;
12760;SDS011;6444;49.742;6.114;2023-07-30T02:34:02;12.02;;;7.47;;
12760;SDS011;6444;49.742;6.114;2023-07-30T02:36:28;14.63;;;7.55;;
12760;SDS011;6444;49.742;6.114;2023-07-30T02:38:56;13.65;;;7.65;;
12760;SDS011;6444;49.742;6.114;2023-07-30T02:41:22;13.25;;;7.25;;
12760;SDS011;6444;49.742;6.114;2023-07-30T02:43:49;11.12;;;7.12;;
12760;SDS011;6444;49.742;6.114;2023-07-30T02:46:16;10.77;;;6.47;;
12760;SDS011;6444;49.742;6.114;2023-07-30T02:48:42;13.85;;;7.78;;
12760;SDS011;6444;49.742;6.114;2023-07-30T02:51:09;12.88;;;7.45;;
12760;SDS011;6444;49.742;6.114;2023-07-30T02:53:36;12.60;;;7.07;;
12760;SDS011;6444;49.742;6.114;2023-07-30T02:56:02;9.73;;;7.32;;
12760;SDS011;6444;49.742;6.114;2023-07-30T02:58:29;9.80;;;6.57;;
12760;SDS011;6444;49.742;6.114;2023-07-30T03:00:55;13.82;;;7.30;;
12760;SDS011;6444;49.742;6.114;2023-07-30T03:03:22;12.23;;;9.30;;
12760;SDS011;6444;49.742;6.114;2023-07-30T03:05:49;11.25;;;8.48;;
12760;SDS011;6444;49.742;6.114;2023-07-30T03:08:15;13.02;;;9.07;;
12760;SDS011;6444;49.742;6.114;2023-07-30T03:10:42;12.88;;;7.47;;
12760;SDS011;6444;49.742;6.114;2023-07-30T03:13:09;11.20;;;7.57;;
12760;SDS011;6444;49.742;6.114;2023-07-30T03:15:35;14.68;;;7.53;;
12760;SDS011;6444;49.742;6.114;2023-07-30T03:18:02;15.20;;;8.57;;
12760;SDS011;6444;49.742;6.114;2023-07-30T03:20:28;19.83;;;9.15;;
12760;SDS011;6444;49.742;6.114;2023-07-30T03:22:56;16.87;;;8.93;;
12760;SDS011;6444;49.742;6.114;2023-07-30T03:25:22;14.93;;;9.98;;
12760;SDS011;6444;49.742;6.114;2023-07-30T03:27:49;12.60;;;8.50;;
12760;SDS011;6444;49.742;6.114;2023-07-30T03:30:16;13.45;;;8.70;;
12760;SDS011;6444;49.742;6.114;2023-07-30T03:32:42;14.20;;;8.77;;
12760;SDS011;6444;49.742;6.114;2023-07-30T03:35:09;13.25;;;8.90;;
12760;SDS011;6444;49.742;6.114;2023-07-30T03:37:36;16.73;;;9.68;;
12760;SDS011;6444;49.742;6.114;2023-07-30T03:40:03;15.40;;;9.27;;
12760;SDS011;6444;49.742;6.114;2023-07-30T03:42:30;16.15;;;10.00;;
12760;SDS011;6444;49.742;6.114;2023-07-30T03:44:57;15.45;;;10.02;;
12760;SDS011;6444;49.742;6.114;2023-07-30T03:47:23;18.67;;;9.85;;
12760;SDS011;6444;49.742;6.114;2023-07-30T03:49:50;15.07;;;10.10;;
12760;SDS011;6444;49.742;6.114;2023-07-30T03:52:16;17.58;;;10.48;;
12760;SDS011;6444;49.742;6.114;2023-07-30T03:54:43;13.00;;;9.00;;
12760;SDS011;6444;49.742;6.114;2023-07-30T03:57:11;18.33;;;9.60;;
12760;SDS011;6444;49.742;6.114;2023-07-30T03:59:37;16.75;;;9.43;;
12760;SDS011;6444;49.742;6.114;2023-07-30T04:02:04;13.68;;;8.95;;
12760;SDS011;6444;49.742;6.114;2023-07-30T04:04:30;15.52;;;9.35;;
12760;SDS011;6444;49.742;6.114;2023-07-30T04:06:57;13.60;;;9.32;;
12760;SDS011;6444;49.742;6.114;2023-07-30T04:09:24;13.43;;;9.43;;
12760;SDS011;6444;49.742;6.114;2023-07-30T04:11:50;15.10;;;8.48;;
12760;SDS011;6444;49.742;6.114;2023-07-30T04:14:18;14.60;;;9.52;;
12760;SDS011;6444;49.742;6.114;2023-07-30T04:16:44;12.45;;;8.82;;
12760;SDS011;6444;49.742;6.114;2023-07-30T04:19:11;14.32;;;8.85;;
12760;SDS011;6444;49.742;6.114;2023-07-30T04:21:38;16.37;;;9.45;;
12760;SDS011;6444;49.742;6.114;2023-07-30T04:24:04;19.85;;;9.85;;
12760;SDS011;6444;49.742;6.114;2023-07-30T04:26:31;17.60;;;9.80;;
12760;SDS011;6444;49.742;6.114;2023-07-30T04:28:57;18.85;;;12.52;;
12760;SDS011;6444;49.742;6.114;2023-07-30T04:31:24;14.48;;;9.52;;
12760;SDS011;6444;49.742;6.114;2023-07-30T04:33:51;15.02;;;8.95;;
12760;SDS011;6444;49.742;6.114;2023-07-30T04:36:17;12.63;;;8.32;;
12760;SDS011;6444;49.742;6.114;2023-07-30T04:38:44;19.67;;;11.98;;
12760;SDS011;6444;49.742;6.114;2023-07-30T04:41:11;13.52;;;11.23;;
12760;SDS011;6444;49.742;6.114;2023-07-30T04:43:37;17.05;;;9.43;;
12760;SDS011;6444;49.742;6.114;2023-07-30T04:46:04;15.98;;;9.30;;
12760;SDS011;6444;49.742;6.114;2023-07-30T04:48:30;15.18;;;10.13;;
12760;SDS011;6444;49.742;6.114;2023-07-30T04:50:57;16.00;;;11.02;;
12760;SDS011;6444;49.742;6.114;2023-07-30T04:53:24;15.82;;;10.93;;
12760;SDS011;6444;49.742;6.114;2023-07-30T04:56:00;17.65;;;10.98;;
12760;SDS011;6444;49.742;6.114;2023-07-30T04:58:23;17.60;;;11.57;;
12760;SDS011;6444;49.742;6.114;2023-07-30T05:00:50;13.93;;;10.60;;
12760;SDS011;6444;49.742;6.114;2023-07-30T05:03:17;17.62;;;10.63;;
12760;SDS011;6444;49.742;6.114;2023-07-30T05:05:43;16.27;;;10.45;;
12760;SDS011;6444;49.742;6.114;2023-07-30T05:08:10;18.95;;;11.07;;
12760;SDS011;6444;49.742;6.114;2023-07-30T05:10:36;14.70;;;12.45;;
12760;SDS011;6444;49.742;6.114;2023-07-30T05:13:03;13.48;;;9.95;;
12760;SDS011;6444;49.742;6.114;2023-07-30T05:15:30;14.73;;;9.50;;
12760;SDS011;6444;49.742;6.114;2023-07-30T05:17:57;8.35;;;6.15;;
12760;SDS011;6444;49.742;6.114;2023-07-30T05:20:24;4.18;;;3.30;;
12760;SDS011;6444;49.742;6.114;2023-07-30T05:22:50;3.80;;;2.95;;
12760;SDS011;6444;49.742;6.114;2023-07-30T05:25:17;4.00;;;2.97;;
12760;SDS011;6444;49.742;6.114;2023-07-30T05:27:44;3.10;;;2.35;;
12760;SDS011;6444;49.742;6.114;2023-07-30T05:30:11;3.95;;;2.45;;
12760;SDS011;6444;49.742;6.114;2023-07-30T05:32:38;5.22;;;2.65;;
12760;SDS011;6444;49.742;6.114;2023-07-30T05:35:04;5.68;;;2.70;;
12760;SDS011;6444;49.742;6.114;2023-07-30T05:37:31;4.90;;;2.75;;
12760;SDS011;6444;49.742;6.114;2023-07-30T05:39:58;3.47;;;2.92;;
12760;SDS011;6444;49.742;6.114;2023-07-30T05:42:25;3.35;;;3.00;;
12760;SDS011;6444;49.742;6.114;2023-07-30T05:44:52;5.05;;;3.10;;
12760;SDS011;6444;49.742;6.114;2023-07-30T05:47:21;4.47;;;3.37;;
12760;SDS011;6444;49.742;6.114;2023-07-30T05:49:48;5.40;;;2.80;;
12760;SDS011;6444;49.742;6.114;2023-07-30T05:52:14;4.68;;;3.10;;
12760;SDS011;6444;49.742;6.114;2023-07-30T05:54:41;4.87;;;2.60;;
12760;SDS011;6444;49.742;6.114;2023-07-30T05:57:08;3.33;;;2.70;;
12760;SDS011;6444;49.742;6.114;2023-07-30T05:59:34;4.53;;;2.87;;
12760;SDS011;6444;49.742;6.114;2023-07-30T06:02:02;3.72;;;2.85;;
12760;SDS011;6444;49.742;6.114;2023-07-30T06:04:28;5.82;;;3.72;;
12760;SDS011;6444;49.742;6.114;2023-07-30T06:06:55;5.15;;;2.62;;
12760;SDS011;6444;49.742;6.114;2023-07-30T06:09:22;3.20;;;2.42;;
12760;SDS011;6444;49.742;6.114;2023-07-30T06:11:48;3.97;;;2.60;;
12760;SDS011;6444;49.742;6.114;2023-07-30T06:14:15;4.10;;;2.42;;
12760;SDS011;6444;49.742;6.114;2023-07-30T06:16:41;5.78;;;2.78;;
12760;SDS011;6444;49.742;6.114;2023-07-30T06:19:09;4.85;;;2.92;;
12760;SDS011;6444;49.742;6.114;2023-07-30T06:21:35;3.97;;;2.50;;
12760;SDS011;6444;49.742;6.114;2023-07-30T06:24:02;5.72;;;3.92;;
12760;SDS011;6444;49.742;6.114;2023-07-30T06:26:29;3.92;;;2.72;;
12760;SDS011;6444;49.742;6.114;2023-07-30T06:28:55;3.92;;;2.40;;
12760;SDS011;6444;49.742;6.114;2023-07-30T06:31:22;3.08;;;2.40;;
12760;SDS011;6444;49.742;6.114;2023-07-30T06:33:49;3.70;;;2.45;;
12760;SDS011;6444;49.742;6.114;2023-07-30T06:36:15;2.28;;;1.95;;
12760;SDS011;6444;49.742;6.114;2023-07-30T06:38:42;2.75;;;1.90;;
12760;SDS011;6444;49.742;6.114;2023-07-30T06:41:09;2.62;;;2.10;;
12760;SDS011;6444;49.742;6.114;2023-07-30T06:43:35;5.12;;;1.90;;
12760;SDS011;6444;49.742;6.114;2023-07-30T06:46:03;3.45;;;1.90;;
12760;SDS011;6444;49.742;6.114;2023-07-30T06:48:29;4.40;;;1.92;;
12760;SDS011;6444;49.742;6.114;2023-07-30T06:50:56;3.12;;;1.80;;
12760;SDS011;6444;49.742;6.114;2023-07-30T06:53:25;4.87;;;2.12;;
12760;SDS011;6444;49.742;6.114;2023-07-30T06:55:52;2.47;;;1.50;;
12760;SDS011;6444;49.742;6.114;2023-07-30T06:58:19;3.53;;;1.80;;
12760;SDS011;6444;49.742;6.114;2023-07-30T07:00:45;3.50;;;1.55;;
12760;SDS011;6444;49.742;6.114;2023-07-30T07:03:12;7.10;;;5.07;;
12760;SDS011;6444;49.742;6.114;2023-07-30T07:05:38;5.43;;;3.60;;
12760;SDS011;6444;49.742;6.114;2023-07-30T07:08:05;5.12;;;1.85;;
12760;SDS011;6444;49.742;6.114;2023-07-30T07:10:32;7.45;;;1.90;;
12760;SDS011;6444;49.742;6.114;2023-07-30T07:12:59;7.57;;;2.10;;
12760;SDS011;6444;49.742;6.114;2023-07-30T07:15:26;5.37;;;2.00;;
12760;SDS011;6444;49.742;6.114;2023-07-30T07:17:52;4.82;;;1.80;;
12760;SDS011;6444;49.742;6.114;2023-07-30T07:20:19;6.05;;;1.80;;
12760;SDS011;6444;49.742;6.114;2023-07-30T07:22:46;5.57;;;2.05;;
12760;SDS011;6444;49.742;6.114;2023-07-30T07:25:12;4.80;;;1.60;;
12760;SDS011;6444;49.742;6.114;2023-07-30T07:27:39;9.80;;;5.97;;
12760;SDS011;6444;49.742;6.114;2023-07-30T07:30:06;4.85;;;2.22;;
12760;SDS011;6444;49.742;6.114;2023-07-30T07:32:32;5.87;;;2.42;;
12760;SDS011;6444;49.742;6.114;2023-07-30T07:34:59;3.55;;;1.95;;
12760;SDS011;6444;49.742;6.114;2023-07-30T07:37:27;4.72;;;1.80;;
12760;SDS011;6444;49.742;6.114;2023-07-30T07:39:53;4.30;;;1.50;;
12760;SDS011;6444;49.742;6.114;2023-07-30T07:42:20;3.10;;;1.65;;
12760;SDS011;6444;49.742;6.114;2023-07-30T07:44:46;4.85;;;1.80;;
12760;SDS011;6444;49.742;6.114;2023-07-30T07:47:13;3.33;;;1.60;;
12760;SDS011;6444;49.742;6.114;2023-07-30T07:49:40;8.15;;;2.10;;
12760;SDS011;6444;49.742;6.114;2023-07-30T07:52:06;8.70;;;1.83;;
12760;SDS011;6444;49.742;6.114;2023-07-30T07:54:33;7.82;;;1.90;;
12760;SDS011;6444;49.742;6.114;2023-07-30T07:57:00;5.87;;;1.85;;
12760;SDS011;6444;49.742;6.114;2023-07-30T07:59:54;5.40;;;2.05;;
12760;SDS011;6444;49.742;6.114;2023-07-30T08:02:20;6.50;;;4.07;;
12760;SDS011;6444;49.742;6.114;2023-07-30T08:04:47;11.38;;;6.53;;
12760;SDS011;6444;49.742;6.114;2023-07-30T08:07:13;3.00;;;2.30;;
12760;SDS011;6444;49.742;6.114;2023-07-30T08:09:40;7.45;;;2.75;;
12760;SDS011;6444;49.742;6.114;2023-07-30T08:12:07;6.22;;;2.40;;
12760;SDS011;6444;49.742;6.114;2023-07-30T08:14:34;4.85;;;2.30;;
12760;SDS011;6444;49.742;6.114;2023-07-30T08:17:01;6.93;;;2.03;;
12760;SDS011;6444;49.742;6.114;2023-07-30T08:19:28;4.65;;;2.20;;
12760;SDS011;6444;49.742;6.114;2023-07-30T08:21:54;5.93;;;2.28;;
12760;SDS011;6444;49.742;6.114;2023-07-30T08:24:22;4.97;;;1.95;;
12760;SDS011;6444;49.742;6.114;2023-07-30T08:26:48;4.53;;;2.37;;
12760;SDS011;6444;49.742;6.114;2023-07-30T08:29:15;5.28;;;3.25;;
12760;SDS011;6444;49.742;6.114;2023-07-30T08:31:41;6.85;;;2.58;;
12760;SDS011;6444;49.742;6.114;2023-07-30T08:34:08;7.50;;;3.08;;
12760;SDS011;6444;49.742;6.114;2023-07-30T08:36:35;7.60;;;2.45;;
12760;SDS011;6444;49.742;6.114;2023-07-30T08:39:02;4.62;;;2.12;;
12760;SDS011;6444;49.742;6.114;2023-07-30T08:41:29;6.47;;;2.00;;
12760;SDS011;6444;49.742;6.114;2023-07-30T08:43:55;6.25;;;2.20;;
12760;SDS011;6444;49.742;6.114;2023-07-30T08:46:22;5.65;;;2.15;;
12760;SDS011;6444;49.742;6.114;2023-07-30T08:48:49;5.32;;;2.45;;
12760;SDS011;6444;49.742;6.114;2023-07-30T08:51:15;5.53;;;2.00;;
12760;SDS011;6444;49.742;6.114;2023-07-30T08:53:42;6.82;;;2.28;;
12760;SDS011;6444;49.742;6.114;2023-07-30T08:56:09;3.58;;;2.05;;
12760;SDS011;6444;49.742;6.114;2023-07-30T08:58:36;5.03;;;1.90;;
12760;SDS011;6444;49.742;6.114;2023-07-30T09:01:05;6.28;;;2.00;;
12760;SDS011;6444;49.742;6.114;2023-07-30T09:03:29;5.28;;;2.17;;
12760;SDS011;6444;49.742;6.114;2023-07-30T09:05:56;4.07;;;1.50;;
12760;SDS011;6444;49.742;6.114;2023-07-30T09:08:22;23.23;;;17.77;;
12760;SDS011;6444;49.742;6.114;2023-07-30T09:10:50;5.93;;;3.55;;
12760;SDS011;6444;49.742;6.114;2023-07-30T09:13:23;6.22;;;3.22;;
12760;SDS011;6444;49.742;6.114;2023-07-30T09:15:49;8.15;;;3.30;;
12760;SDS011;6444;49.742;6.114;2023-07-30T09:18:19;5.75;;;2.42;;
12760;SDS011;6444;49.742;6.114;2023-07-30T09:20:45;12.02;;;6.10;;
12760;SDS011;6444;49.742;6.114;2023-07-30T09:23:12;10.25;;;6.03;;
12760;SDS011;6444;49.742;6.114;2023-07-30T09:25:38;7.62;;;3.75;;
12760;SDS011;6444;49.742;6.114;2023-07-30T09:28:05;16.92;;;12.02;;
12760;SDS011;6444;49.742;6.114;2023-07-30T09:30:32;51.47;;;36.95;;
12760;SDS011;6444;49.742;6.114;2023-07-30T09:32:59;14.35;;;9.65;;
12760;SDS011;6444;49.742;6.114;2023-07-30T09:35:26;29.05;;;19.48;;
12760;SDS011;6444;49.742;6.114;2023-07-30T09:37:59;23.23;;;15.93;;
12760;SDS011;6444;49.742;6.114;2023-07-30T09:40:31;15.13;;;9.43;;
12760;SDS011;6444;49.742;6.114;2023-07-30T09:43:01;14.48;;;9.98;;
12760;SDS011;6444;49.742;6.114;2023-07-30T09:45:27;40.85;;;29.37;;
12760;SDS011;6444;49.742;6.114;2023-07-30T09:47:54;7.40;;;3.28;;
12760;SDS011;6444;49.742;6.114;2023-07-30T09:50:20;17.83;;;11.50;;
12760;SDS011;6444;49.742;6.114;2023-07-30T09:52:47;14.32;;;7.68;;
12760;SDS011;6444;49.742;6.114;2023-07-30T09:55:14;22.42;;;18.67;;
12760;SDS011;6444;49.742;6.114;2023-07-30T09:57:40;33.15;;;27.10;;
12760;SDS011;6444;49.742;6.114;2023-07-30T10:00:07;10.60;;;6.40;;
12760;SDS011;6444;49.742;6.114;2023-07-30T10:02:39;20.15;;;16.30;;
12760;SDS011;6444;49.742;6.114;2023-07-30T10:05:05;9.40;;;6.65;;
12760;SDS011;6444;49.742;6.114;2023-07-30T10:07:30;6.97;;;3.28;;
12760;SDS011;6444;49.742;6.114;2023-07-30T10:09:58;30.35;;;24.70;;
12760;SDS011;6444;49.742;6.114;2023-07-30T10:12:28;16.83;;;13.85;;
12760;SDS011;6444;49.742;6.114;2023-07-30T10:14:50;8.50;;;6.55;;
12760;SDS011;6444;49.742;6.114;2023-07-30T10:17:17;12.02;;;5.60;;
12760;SDS011;6444;49.742;6.114;2023-07-30T10:19:46;7.90;;;4.40;;
12760;SDS011;6444;49.742;6.114;2023-07-30T10:24:40;9.02;;;5.55;;
12760;SDS011;6444;49.742;6.114;2023-07-30T10:27:07;9.30;;;2.92;;
12760;SDS011;6444;49.742;6.114;2023-07-30T10:29:34;9.82;;;4.62;;
12760;SDS011;6444;49.742;6.114;2023-07-30T10:32:03;6.80;;;3.78;;
12760;SDS011;6444;49.742;6.114;2023-07-30T10:34:46;6.85;;;3.20;;
12760;SDS011;6444;49.742;6.114;2023-07-30T10:37:18;6.97;;;2.15;;
12760;SDS011;6444;49.742;6.114;2023-07-30T10:39:47;7.43;;;4.00;;
12760;SDS011;6444;49.742;6.114;2023-07-30T10:42:12;5.25;;;2.33;;
12760;SDS011;6444;49.742;6.114;2023-07-30T10:44:40;5.82;;;3.35;;
12760;SDS011;6444;49.742;6.114;2023-07-30T10:47:06;8.93;;;2.30;;
12760;SDS011;6444;49.742;6.114;2023-07-30T10:49:36;6.65;;;4.82;;
12760;SDS011;6444;49.742;6.114;2023-07-30T10:52:02;7.70;;;5.80;;
12760;SDS011;6444;49.742;6.114;2023-07-30T10:54:32;7.95;;;4.30;;
12760;SDS011;6444;49.742;6.114;2023-07-30T10:56:55;6.70;;;3.55;;
12760;SDS011;6444;49.742;6.114;2023-07-30T10:59:21;8.00;;;3.22;;
12760;SDS011;6444;49.742;6.114;2023-07-30T11:01:48;6.43;;;2.62;;
12760;SDS011;6444;49.742;6.114;2023-07-30T11:04:19;7.07;;;2.30;;
12760;SDS011;6444;49.742;6.114;2023-07-30T11:06:48;3.50;;;2.12;;
12760;SDS011;6444;49.742;6.114;2023-07-30T11:09:18;7.18;;;2.40;;
12760;SDS011;6444;49.742;6.114;2023-07-30T11:11:44;3.83;;;1.62;;
12760;SDS011;6444;49.742;6.114;2023-07-30T11:14:21;5.78;;;2.08;;
12760;SDS011;6444;49.742;6.114;2023-07-30T11:16:50;5.62;;;1.77;;
12760;SDS011;6444;49.742;6.114;2023-07-30T11:19:15;5.57;;;1.90;;
12760;SDS011;6444;49.742;6.114;2023-07-30T11:21:46;3.60;;;1.50;;
12760;SDS011;6444;49.742;6.114;2023-07-30T11:24:12;5.22;;;1.70;;
12760;SDS011;6444;49.742;6.114;2023-07-30T11:26:38;6.57;;;2.05;;
12760;SDS011;6444;49.742;6.114;2023-07-30T11:29:17;6.78;;;1.65;;
12760;SDS011;6444;49.742;6.114;2023-07-30T11:31:44;7.53;;;2.08;;
12760;SDS011;6444;49.742;6.114;2023-07-30T11:34:11;5.03;;;2.37;;
12760;SDS011;6444;49.742;6.114;2023-07-30T11:36:37;4.20;;;1.55;;
12760;SDS011;6444;49.742;6.114;2023-07-30T11:39:04;5.35;;;2.35;;
12760;SDS011;6444;49.742;6.114;2023-07-30T11:41:30;7.03;;;1.80;;
12760;SDS011;6444;49.742;6.114;2023-07-30T11:43:57;6.22;;;1.90;;
12760;SDS011;6444;49.742;6.114;2023-07-30T11:46:23;5.45;;;1.90;;
12760;SDS011;6444;49.742;6.114;2023-07-30T11:48:51;3.92;;;1.60;;
12760;SDS011;6444;49.742;6.114;2023-07-30T11:51:27;6.53;;;2.12;;
12760;SDS011;6444;49.742;6.114;2023-07-30T11:53:53;6.32;;;3.00;;
12760;SDS011;6444;49.742;6.114;2023-07-30T11:56:29;5.75;;;1.80;;
12760;SDS011;6444;49.742;6.114;2023-07-30T11:58:59;5.22;;;1.50;;
12760;SDS011;6444;49.742;6.114;2023-07-30T12:01:25;4.80;;;1.37;;
12760;SDS011;6444;49.742;6.114;2023-07-30T12:03:55;4.22;;;1.35;;
12760;SDS011;6444;49.742;6.114;2023-07-30T12:06:20;4.75;;;1.70;;
12760;SDS011;6444;49.742;6.114;2023-07-30T12:08:50;3.60;;;1.62;;
12760;SDS011;6444;49.742;6.114;2023-07-30T12:11:17;5.80;;;1.98;;
12760;SDS011;6444;49.742;6.114;2023-07-30T12:13:44;4.40;;;2.92;;
12760;SDS011;6444;49.742;6.114;2023-07-30T12:16:10;7.10;;;2.20;;
12760;SDS011;6444;49.742;6.114;2023-07-30T12:18:36;5.18;;;1.77;;
12760;SDS011;6444;49.742;6.114;2023-07-30T12:21:03;3.37;;;1.30;;
12760;SDS011;6444;49.742;6.114;2023-07-30T12:23:33;3.40;;;1.37;;
12760;SDS011;6444;49.742;6.114;2023-07-30T12:26:00;2.70;;;1.30;;
12760;SDS011;6444;49.742;6.114;2023-07-30T12:28:26;3.00;;;1.30;;
12760;SDS011;6444;49.742;6.114;2023-07-30T12:30:53;2.87;;;1.37;;
12760;SDS011;6444;49.742;6.114;2023-07-30T12:33:19;4.68;;;1.33;;
12760;SDS011;6444;49.742;6.114;2023-07-30T12:35:46;4.25;;;1.62;;
12760;SDS011;6444;49.742;6.114;2023-07-30T12:38:13;3.08;;;1.40;;
12760;SDS011;6444;49.742;6.114;2023-07-30T12:40:40;3.42;;;1.50;;
12760;SDS011;6444;49.742;6.114;2023-07-30T12:43:07;2.55;;;1.10;;
12760;SDS011;6444;49.742;6.114;2023-07-30T12:45:33;3.95;;;1.42;;
12760;SDS011;6444;49.742;6.114;2023-07-30T12:48:00;3.90;;;1.15;;
12760;SDS011;6444;49.742;6.114;2023-07-30T12:50:27;4.75;;;1.65;;
12760;SDS011;6444;49.742;6.114;2023-07-30T12:52:54;3.58;;;1.20;;
12760;SDS011;6444;49.742;6.114;2023-07-30T12:55:21;4.65;;;1.70;;
12760;SDS011;6444;49.742;6.114;2023-07-30T12:57:47;4.45;;;2.03;;
12760;SDS011;6444;49.742;6.114;2023-07-30T13:00:14;3.65;;;1.40;;
12760;SDS011;6444;49.742;6.114;2023-07-30T13:02:41;2.53;;;1.40;;
12760;SDS011;6444;49.742;6.114;2023-07-30T13:05:07;3.75;;;1.40;;
12760;SDS011;6444;49.742;6.114;2023-07-30T13:07:34;4.70;;;1.62;;
12760;SDS011;6444;49.742;6.114;2023-07-30T13:10:07;3.90;;;1.90;;
12760;SDS011;6444;49.742;6.114;2023-07-30T13:12:33;4.03;;;2.20;;
12760;SDS011;6444;49.742;6.114;2023-07-30T13:15:00;3.28;;;1.60;;
12760;SDS011;6444;49.742;6.114;2023-07-30T13:17:27;4.60;;;1.70;;
12760;SDS011;6444;49.742;6.114;2023-07-30T13:19:54;4.37;;;1.65;;
12760;SDS011;6444;49.742;6.114;2023-07-30T13:22:21;4.60;;;1.60;;
12760;SDS011;6444;49.742;6.114;2023-07-30T13:24:47;2.83;;;1.45;;
12760;SDS011;6444;49.742;6.114;2023-07-30T13:27:14;4.05;;;1.55;;
12760;SDS011;6444;49.742;6.114;2023-07-30T13:29:40;2.75;;;1.42;;
12760;SDS011;6444;49.742;6.114;2023-07-30T13:32:08;4.20;;;1.55;;
12760;SDS011;6444;49.742;6.114;2023-07-30T13:34:35;3.33;;;1.42;;
12760;SDS011;6444;49.742;6.114;2023-07-30T13:37:01;4.00;;;1.35;;
12760;SDS011;6444;49.742;6.114;2023-07-30T13:39:28;4.50;;;1.45;;
12760;SDS011;6444;49.742;6.114;2023-07-30T13:41:54;3.97;;;1.80;;
12760;SDS011;6444;49.742;6.114;2023-07-30T13:44:22;2.67;;;1.20;;
12760;SDS011;6444;49.742;6.114;2023-07-30T13:46:48;4.40;;;1.90;;
12760;SDS011;6444;49.742;6.114;2023-07-30T13:49:15;4.65;;;1.70;;
12760;SDS011;6444;49.742;6.114;2023-07-30T13:51:42;3.62;;;1.62;;
12760;SDS011;6444;49.742;6.114;2023-07-30T13:54:08;5.75;;;1.52;;
12760;SDS011;6444;49.742;6.114;2023-07-30T13:56:36;2.22;;;1.20;;
12760;SDS011;6444;49.742;6.114;2023-07-30T13:59:02;3.42;;;1.60;;
12760;SDS011;6444;49.742;6.114;2023-07-30T14:01:29;4.62;;;1.52;;
12760;SDS011;6444;49.742;6.114;2023-07-30T14:03:56;2.85;;;1.33;;
12760;SDS011;6444;49.742;6.114;2023-07-30T14:06:22;5.10;;;1.62;;
12760;SDS011;6444;49.742;6.114;2023-07-30T14:08:49;4.18;;;1.37;;
12760;SDS011;6444;49.742;6.114;2023-07-30T14:11:15;4.40;;;1.58;;
12760;SDS011;6444;49.742;6.114;2023-07-30T14:13:42;3.10;;;1.50;;
12760;SDS011;6444;49.742;6.114;2023-07-30T14:16:09;3.75;;;1.50;;
12760;SDS011;6444;49.742;6.114;2023-07-30T14:18:35;3.08;;;1.45;;
12760;SDS011;6444;49.742;6.114;2023-07-30T14:21:02;2.05;;;1.25;;
12760;SDS011;6444;49.742;6.114;2023-07-30T14:23:29;4.10;;;1.35;;
12760;SDS011;6444;49.742;6.114;2023-07-30T14:25:55;3.80;;;1.67;;
12760;SDS011;6444;49.742;6.114;2023-07-30T14:28:22;3.75;;;1.45;;
12760;SDS011;6444;49.742;6.114;2023-07-30T14:30:49;3.08;;;1.17;;
12760;SDS011;6444;49.742;6.114;2023-07-30T14:33:16;2.40;;;1.30;;
12760;SDS011;6444;49.742;6.114;2023-07-30T14:35:42;4.25;;;1.37;;
12760;SDS011;6444;49.742;6.114;2023-07-30T14:38:09;3.92;;;1.52;;
12760;SDS011;6444;49.742;6.114;2023-07-30T14:40:36;3.83;;;1.62;;
12760;SDS011;6444;49.742;6.114;2023-07-30T14:43:03;3.08;;;1.30;;
12760;SDS011;6444;49.742;6.114;2023-07-30T14:45:30;3.83;;;1.52;;
12760;SDS011;6444;49.742;6.114;2023-07-30T14:47:56;2.75;;;1.42;;
12760;SDS011;6444;49.742;6.114;2023-07-30T14:50:23;4.03;;;1.50;;
12760;SDS011;6444;49.742;6.114;2023-07-30T14:52:50;3.72;;;1.30;;
12760;SDS011;6444;49.742;6.114;2023-07-30T14:55:17;3.95;;;1.50;;
12760;SDS011;6444;49.742;6.114;2023-07-30T14:57:44;4.80;;;1.30;;